sensor_id;sensor_type;location;lat;lon;timestamp;P1;durP1;ratioP1;P2;durP2;ratioP2
60205;SDS011;46072;51.554;6.846;2022-12-18T00:01:27;60.13;;;24.73;;
60205;SDS011;46072;51.554;6.846;2022-12-18T00:03:57;76.45;;;26.15;;
60205;SDS011;46072;51.554;6.846;2022-12-18T00:06:25;41.38;;;21.98;;
60205;SDS011;46072;51.554;6.846;2022-12-18T00:08:53;54.63;;;24.20;;
60205;SDS011;46072;51.554;6.846;2022-12-18T00:11:22;59.58;;;24.52;;
60205;SDS011;46072;51.554;6.846;2022-12-18T00:13:50;62.63;;;25.05;;
60205;SDS011;46072;51.554;6.846;2022-12-18T00:16:18;62.03;;;27.05;;
60205;SDS011;46072;51.554;6.846;2022-12-18T00:18:47;63.45;;;25.92;;
60205;SDS011;46072;51.554;6.846;2022-12-18T00:21:15;67.40;;;27.33;;
60205;SDS011;46072;51.554;6.846;2022-12-18T00:23:42;59.08;;;26.77;;
60205;SDS011;46072;51.554;6.846;2022-12-18T00:26:11;66.00;;;27.75;;
60205;SDS011;46072;51.554;6.846;2022-12-18T00:28:39;64.20;;;28.65;;
60205;SDS011;46072;51.554;6.846;2022-12-18T00:31:06;58.63;;;26.13;;
60205;SDS011;46072;51.554;6.846;2022-12-18T00:33:34;62.08;;;28.20;;
60205;SDS011;46072;51.554;6.846;2022-12-18T00:36:06;55.10;;;25.38;;
60205;SDS011;46072;51.554;6.846;2022-12-18T00:38:36;71.43;;;27.70;;
60205;SDS011;46072;51.554;6.846;2022-12-18T00:41:03;58.55;;;24.88;;
60205;SDS011;46072;51.554;6.846;2022-12-18T00:43:30;69.78;;;29.88;;
60205;SDS011;46072;51.554;6.846;2022-12-18T00:46:00;73.68;;;32.45;;
60205;SDS011;46072;51.554;6.846;2022-12-18T00:48:27;70.05;;;29.98;;
60205;SDS011;46072;51.554;6.846;2022-12-18T00:50:53;67.82;;;27.75;;
60205;SDS011;46072;51.554;6.846;2022-12-18T00:53:20;75.95;;;31.50;;
60205;SDS011;46072;51.554;6.846;2022-12-18T00:55:46;98.25;;;34.65;;
60205;SDS011;46072;51.554;6.846;2022-12-18T00:58:16;71.43;;;32.13;;
60205;SDS011;46072;51.554;6.846;2022-12-18T01:00:43;68.05;;;29.27;;
60205;SDS011;46072;51.554;6.846;2022-12-18T01:03:10;69.45;;;29.02;;
60205;SDS011;46072;51.554;6.846;2022-12-18T01:05:40;70.32;;;28.00;;
60205;SDS011;46072;51.554;6.846;2022-12-18T01:08:07;65.38;;;26.35;;
60205;SDS011;46072;51.554;6.846;2022-12-18T01:10:34;64.28;;;25.55;;
60205;SDS011;46072;51.554;6.846;2022-12-18T01:13:00;65.20;;;25.38;;
60205;SDS011;46072;51.554;6.846;2022-12-18T01:15:27;52.75;;;24.42;;
60205;SDS011;46072;51.554;6.846;2022-12-18T01:17:53;57.05;;;24.48;;
60205;SDS011;46072;51.554;6.846;2022-12-18T01:20:20;57.55;;;23.65;;
60205;SDS011;46072;51.554;6.846;2022-12-18T01:22:46;55.88;;;24.33;;
60205;SDS011;46072;51.554;6.846;2022-12-18T01:25:13;57.85;;;23.60;;
60205;SDS011;46072;51.554;6.846;2022-12-18T01:27:39;60.95;;;24.25;;
60205;SDS011;46072;51.554;6.846;2022-12-18T01:30:06;54.53;;;23.63;;
60205;SDS011;46072;51.554;6.846;2022-12-18T01:32:33;62.05;;;25.35;;
60205;SDS011;46072;51.554;6.846;2022-12-18T01:34:59;61.70;;;23.40;;
60205;SDS011;46072;51.554;6.846;2022-12-18T01:37:26;56.25;;;24.77;;
60205;SDS011;46072;51.554;6.846;2022-12-18T01:39:52;62.67;;;24.17;;
60205;SDS011;46072;51.554;6.846;2022-12-18T01:42:20;58.42;;;23.13;;
60205;SDS011;46072;51.554;6.846;2022-12-18T01:47:41;47.35;;;20.25;;
60205;SDS011;46072;51.554;6.846;2022-12-18T01:50:20;42.60;;;20.60;;
60205;SDS011;46072;51.554;6.846;2022-12-18T01:52:50;47.65;;;22.13;;
60205;SDS011;46072;51.554;6.846;2022-12-18T01:55:22;52.08;;;20.73;;
60205;SDS011;46072;51.554;6.846;2022-12-18T01:57:52;57.42;;;23.27;;
60205;SDS011;46072;51.554;6.846;2022-12-18T02:00:21;51.40;;;21.63;;
60205;SDS011;46072;51.554;6.846;2022-12-18T02:02:48;45.10;;;20.10;;
60205;SDS011;46072;51.554;6.846;2022-12-18T02:05:16;55.20;;;19.48;;
60205;SDS011;46072;51.554;6.846;2022-12-18T02:07:52;50.72;;;21.00;;
60205;SDS011;46072;51.554;6.846;2022-12-18T02:10:28;61.22;;;23.75;;
60205;SDS011;46072;51.554;6.846;2022-12-18T02:15:39;48.05;;;20.38;;
60205;SDS011;46072;51.554;6.846;2022-12-18T02:18:11;48.95;;;21.52;;
60205;SDS011;46072;51.554;6.846;2022-12-18T02:23:35;46.67;;;20.17;;
60205;SDS011;46072;51.554;6.846;2022-12-18T02:29:58;53.78;;;20.88;;
60205;SDS011;46072;51.554;6.846;2022-12-18T02:32:06;45.60;;;20.17;;
60205;SDS011;46072;51.554;6.846;2022-12-18T02:34:36;53.90;;;20.98;;
60205;SDS011;46072;51.554;6.846;2022-12-18T02:37:05;43.35;;;20.50;;
60205;SDS011;46072;51.554;6.846;2022-12-18T02:39:35;44.03;;;19.25;;
60205;SDS011;46072;51.554;6.846;2022-12-18T02:42:03;48.90;;;20.33;;
60205;SDS011;46072;51.554;6.846;2022-12-18T02:44:34;44.45;;;19.02;;
60205;SDS011;46072;51.554;6.846;2022-12-18T02:47:02;48.03;;;19.83;;
60205;SDS011;46072;51.554;6.846;2022-12-18T02:49:34;44.45;;;19.15;;
60205;SDS011;46072;51.554;6.846;2022-12-18T02:57:36;54.58;;;20.63;;
60205;SDS011;46072;51.554;6.846;2022-12-18T03:00:15;61.67;;;21.27;;
60205;SDS011;46072;51.554;6.846;2022-12-18T03:02:49;59.45;;;22.05;;
60205;SDS011;46072;51.554;6.846;2022-12-18T03:05:22;47.03;;;20.60;;
60205;SDS011;46072;51.554;6.846;2022-12-18T03:07:57;49.88;;;20.90;;
60205;SDS011;46072;51.554;6.846;2022-12-18T03:10:28;51.25;;;22.63;;
60205;SDS011;46072;51.554;6.846;2022-12-18T03:13:00;54.25;;;21.20;;
60205;SDS011;46072;51.554;6.846;2022-12-18T03:15:41;42.13;;;20.52;;
60205;SDS011;46072;51.554;6.846;2022-12-18T03:18:18;44.28;;;17.77;;
60205;SDS011;46072;51.554;6.846;2022-12-18T03:20:47;35.47;;;17.05;;
60205;SDS011;46072;51.554;6.846;2022-12-18T03:23:15;45.65;;;19.70;;
60205;SDS011;46072;51.554;6.846;2022-12-18T03:25:47;47.60;;;20.35;;
60205;SDS011;46072;51.554;6.846;2022-12-18T03:28:16;47.90;;;20.67;;
60205;SDS011;46072;51.554;6.846;2022-12-18T03:30:47;48.25;;;21.48;;
60205;SDS011;46072;51.554;6.846;2022-12-18T03:33:19;45.85;;;18.23;;
60205;SDS011;46072;51.554;6.846;2022-12-18T03:35:50;45.60;;;19.27;;
60205;SDS011;46072;51.554;6.846;2022-12-18T03:38:16;48.80;;;19.77;;
60205;SDS011;46072;51.554;6.846;2022-12-18T03:46:06;48.22;;;20.13;;
60205;SDS011;46072;51.554;6.846;2022-12-18T03:48:43;41.53;;;19.58;;
60205;SDS011;46072;51.554;6.846;2022-12-18T03:51:33;47.42;;;18.67;;
60205;SDS011;46072;51.554;6.846;2022-12-18T03:54:20;54.97;;;21.60;;
60205;SDS011;46072;51.554;6.846;2022-12-18T03:56:48;34.78;;;18.02;;
60205;SDS011;46072;51.554;6.846;2022-12-18T03:59:19;44.40;;;17.80;;
60205;SDS011;46072;51.554;6.846;2022-12-18T04:01:47;44.33;;;21.40;;
60205;SDS011;46072;51.554;6.846;2022-12-18T04:04:15;46.00;;;18.77;;
60205;SDS011;46072;51.554;6.846;2022-12-18T04:06:46;48.88;;;19.23;;
60205;SDS011;46072;51.554;6.846;2022-12-18T04:09:14;42.33;;;21.23;;
60205;SDS011;46072;51.554;6.846;2022-12-18T04:11:41;50.35;;;19.77;;
60205;SDS011;46072;51.554;6.846;2022-12-18T04:14:09;42.78;;;17.73;;
60205;SDS011;46072;51.554;6.846;2022-12-18T04:16:43;49.88;;;21.63;;
60205;SDS011;46072;51.554;6.846;2022-12-18T04:19:09;39.42;;;19.38;;
60205;SDS011;46072;51.554;6.846;2022-12-18T04:21:36;43.70;;;19.42;;
60205;SDS011;46072;51.554;6.846;2022-12-18T04:24:03;43.83;;;20.38;;
60205;SDS011;46072;51.554;6.846;2022-12-18T04:26:29;44.00;;;19.48;;
60205;SDS011;46072;51.554;6.846;2022-12-18T04:28:56;37.33;;;18.15;;
60205;SDS011;46072;51.554;6.846;2022-12-18T04:31:22;40.55;;;19.02;;
60205;SDS011;46072;51.554;6.846;2022-12-18T04:33:49;45.28;;;19.35;;
60205;SDS011;46072;51.554;6.846;2022-12-18T04:36:15;60.90;;;21.90;;
60205;SDS011;46072;51.554;6.846;2022-12-18T04:38:41;42.08;;;18.45;;
60205;SDS011;46072;51.554;6.846;2022-12-18T04:41:08;42.90;;;19.90;;
60205;SDS011;46072;51.554;6.846;2022-12-18T04:43:34;51.67;;;19.02;;
60205;SDS011;46072;51.554;6.846;2022-12-18T04:46:02;45.80;;;21.38;;
60205;SDS011;46072;51.554;6.846;2022-12-18T04:48:30;36.50;;;18.88;;
60205;SDS011;46072;51.554;6.846;2022-12-18T04:50:56;48.63;;;21.02;;
60205;SDS011;46072;51.554;6.846;2022-12-18T04:53:23;45.17;;;19.73;;
60205;SDS011;46072;51.554;6.846;2022-12-18T04:55:49;41.72;;;19.15;;
60205;SDS011;46072;51.554;6.846;2022-12-18T04:58:16;33.97;;;18.73;;
60205;SDS011;46072;51.554;6.846;2022-12-18T05:00:43;38.88;;;18.52;;
60205;SDS011;46072;51.554;6.846;2022-12-18T05:03:09;41.38;;;19.27;;
60205;SDS011;46072;51.554;6.846;2022-12-18T05:05:36;40.53;;;18.30;;
60205;SDS011;46072;51.554;6.846;2022-12-18T05:08:02;41.45;;;18.00;;
60205;SDS011;46072;51.554;6.846;2022-12-18T05:10:29;40.60;;;17.60;;
60205;SDS011;46072;51.554;6.846;2022-12-18T05:13:03;37.47;;;15.95;;
60205;SDS011;46072;51.554;6.846;2022-12-18T05:15:30;44.88;;;19.20;;
60205;SDS011;46072;51.554;6.846;2022-12-18T05:17:57;33.13;;;16.25;;
60205;SDS011;46072;51.554;6.846;2022-12-18T05:20:25;30.25;;;14.95;;
60205;SDS011;46072;51.554;6.846;2022-12-18T05:22:52;35.30;;;17.33;;
60205;SDS011;46072;51.554;6.846;2022-12-18T05:25:20;43.60;;;18.60;;
60205;SDS011;46072;51.554;6.846;2022-12-18T05:27:46;35.30;;;17.88;;
60205;SDS011;46072;51.554;6.846;2022-12-18T05:30:13;38.20;;;17.15;;
60205;SDS011;46072;51.554;6.846;2022-12-18T05:32:40;31.33;;;16.00;;
60205;SDS011;46072;51.554;6.846;2022-12-18T05:35:07;35.85;;;15.57;;
60205;SDS011;46072;51.554;6.846;2022-12-18T05:37:35;41.35;;;17.67;;
60205;SDS011;46072;51.554;6.846;2022-12-18T05:40:08;37.00;;;16.10;;
60205;SDS011;46072;51.554;6.846;2022-12-18T05:42:35;30.70;;;16.20;;
60205;SDS011;46072;51.554;6.846;2022-12-18T05:45:01;40.90;;;17.38;;
60205;SDS011;46072;51.554;6.846;2022-12-18T05:47:29;33.85;;;14.85;;
60205;SDS011;46072;51.554;6.846;2022-12-18T05:49:56;41.38;;;15.75;;
60205;SDS011;46072;51.554;6.846;2022-12-18T05:52:23;43.10;;;17.70;;
60205;SDS011;46072;51.554;6.846;2022-12-18T05:54:49;37.53;;;18.00;;
60205;SDS011;46072;51.554;6.846;2022-12-18T05:57:15;32.28;;;16.40;;
60205;SDS011;46072;51.554;6.846;2022-12-18T05:59:42;38.17;;;18.10;;
60205;SDS011;46072;51.554;6.846;2022-12-18T06:02:08;39.55;;;17.50;;
60205;SDS011;46072;51.554;6.846;2022-12-18T06:04:35;39.95;;;16.92;;
60205;SDS011;46072;51.554;6.846;2022-12-18T06:07:03;36.55;;;16.08;;
60205;SDS011;46072;51.554;6.846;2022-12-18T06:09:29;38.17;;;17.52;;
60205;SDS011;46072;51.554;6.846;2022-12-18T06:11:55;39.08;;;17.15;;
60205;SDS011;46072;51.554;6.846;2022-12-18T06:14:22;37.20;;;16.25;;
60205;SDS011;46072;51.554;6.846;2022-12-18T06:16:50;41.00;;;16.10;;
60205;SDS011;46072;51.554;6.846;2022-12-18T06:19:17;40.95;;;17.77;;
60205;SDS011;46072;51.554;6.846;2022-12-18T06:21:44;28.88;;;13.90;;
60205;SDS011;46072;51.554;6.846;2022-12-18T06:24:11;29.77;;;14.02;;
60205;SDS011;46072;51.554;6.846;2022-12-18T06:26:38;28.52;;;14.48;;
60205;SDS011;46072;51.554;6.846;2022-12-18T06:29:05;43.13;;;18.05;;
60205;SDS011;46072;51.554;6.846;2022-12-18T06:31:31;46.78;;;17.70;;
60205;SDS011;46072;51.554;6.846;2022-12-18T06:33:58;38.58;;;17.83;;
60205;SDS011;46072;51.554;6.846;2022-12-18T06:36:25;40.80;;;17.83;;
60205;SDS011;46072;51.554;6.846;2022-12-18T06:38:52;42.97;;;20.23;;
60205;SDS011;46072;51.554;6.846;2022-12-18T06:41:19;38.00;;;16.35;;
60205;SDS011;46072;51.554;6.846;2022-12-18T06:43:46;40.75;;;17.88;;
60205;SDS011;46072;51.554;6.846;2022-12-18T06:46:13;39.22;;;17.27;;
60205;SDS011;46072;51.554;6.846;2022-12-18T06:48:40;46.85;;;22.20;;
60205;SDS011;46072;51.554;6.846;2022-12-18T06:51:06;37.67;;;18.58;;
60205;SDS011;46072;51.554;6.846;2022-12-18T06:53:33;39.00;;;17.85;;
60205;SDS011;46072;51.554;6.846;2022-12-18T06:56:00;35.00;;;16.77;;
60205;SDS011;46072;51.554;6.846;2022-12-18T06:58:34;28.88;;;12.75;;
60205;SDS011;46072;51.554;6.846;2022-12-18T07:01:02;29.60;;;14.48;;
60205;SDS011;46072;51.554;6.846;2022-12-18T07:03:30;32.80;;;15.98;;
60205;SDS011;46072;51.554;6.846;2022-12-18T07:05:57;35.80;;;16.00;;
60205;SDS011;46072;51.554;6.846;2022-12-18T07:08:23;32.65;;;15.80;;
60205;SDS011;46072;51.554;6.846;2022-12-18T07:10:51;37.05;;;15.23;;
60205;SDS011;46072;51.554;6.846;2022-12-18T07:13:21;32.58;;;14.93;;
60205;SDS011;46072;51.554;6.846;2022-12-18T07:15:48;33.95;;;14.68;;
60205;SDS011;46072;51.554;6.846;2022-12-18T07:18:14;28.48;;;16.63;;
60205;SDS011;46072;51.554;6.846;2022-12-18T07:20:41;35.35;;;14.45;;
60205;SDS011;46072;51.554;6.846;2022-12-18T07:23:07;35.80;;;13.75;;
60205;SDS011;46072;51.554;6.846;2022-12-18T07:25:36;38.40;;;16.15;;
60205;SDS011;46072;51.554;6.846;2022-12-18T07:28:03;38.67;;;16.42;;
60205;SDS011;46072;51.554;6.846;2022-12-18T07:30:30;26.90;;;13.98;;
60205;SDS011;46072;51.554;6.846;2022-12-18T07:32:57;30.73;;;15.32;;
60205;SDS011;46072;51.554;6.846;2022-12-18T07:35:23;30.35;;;13.30;;
60205;SDS011;46072;51.554;6.846;2022-12-18T07:37:50;29.65;;;13.95;;
60205;SDS011;46072;51.554;6.846;2022-12-18T07:40:17;31.30;;;14.73;;
60205;SDS011;46072;51.554;6.846;2022-12-18T07:42:43;31.10;;;14.50;;
60205;SDS011;46072;51.554;6.846;2022-12-18T07:45:10;34.65;;;16.85;;
60205;SDS011;46072;51.554;6.846;2022-12-18T07:47:37;29.70;;;13.98;;
60205;SDS011;46072;51.554;6.846;2022-12-18T07:50:04;31.73;;;13.95;;
60205;SDS011;46072;51.554;6.846;2022-12-18T07:52:31;32.33;;;14.48;;
60205;SDS011;46072;51.554;6.846;2022-12-18T07:54:58;33.97;;;16.67;;
60205;SDS011;46072;51.554;6.846;2022-12-18T07:57:24;38.60;;;18.42;;
60205;SDS011;46072;51.554;6.846;2022-12-18T08:00:11;33.92;;;14.55;;
60205;SDS011;46072;51.554;6.846;2022-12-18T08:02:38;34.53;;;14.15;;
60205;SDS011;46072;51.554;6.846;2022-12-18T08:05:05;43.08;;;17.50;;
60205;SDS011;46072;51.554;6.846;2022-12-18T08:07:32;38.05;;;15.25;;
60205;SDS011;46072;51.554;6.846;2022-12-18T08:09:58;29.83;;;14.23;;
60205;SDS011;46072;51.554;6.846;2022-12-18T08:12:25;37.65;;;16.27;;
60205;SDS011;46072;51.554;6.846;2022-12-18T08:14:51;38.55;;;18.10;;
60205;SDS011;46072;51.554;6.846;2022-12-18T08:17:18;35.10;;;14.57;;
60205;SDS011;46072;51.554;6.846;2022-12-18T08:19:45;33.83;;;15.85;;
60205;SDS011;46072;51.554;6.846;2022-12-18T08:22:12;33.03;;;14.95;;
60205;SDS011;46072;51.554;6.846;2022-12-18T08:24:38;32.58;;;16.52;;
60205;SDS011;46072;51.554;6.846;2022-12-18T08:27:05;37.47;;;16.13;;
60205;SDS011;46072;51.554;6.846;2022-12-18T08:29:52;36.33;;;16.50;;
60205;SDS011;46072;51.554;6.846;2022-12-18T08:32:21;35.75;;;17.77;;
60205;SDS011;46072;51.554;6.846;2022-12-18T08:34:47;43.60;;;21.02;;
60205;SDS011;46072;51.554;6.846;2022-12-18T08:37:14;48.13;;;21.05;;
60205;SDS011;46072;51.554;6.846;2022-12-18T08:39:41;41.58;;;22.27;;
60205;SDS011;46072;51.554;6.846;2022-12-18T08:42:07;46.50;;;21.50;;
60205;SDS011;46072;51.554;6.846;2022-12-18T08:44:52;42.80;;;20.58;;
60205;SDS011;46072;51.554;6.846;2022-12-18T08:47:19;46.58;;;21.10;;
60205;SDS011;46072;51.554;6.846;2022-12-18T08:49:45;42.38;;;19.38;;
60205;SDS011;46072;51.554;6.846;2022-12-18T08:52:12;48.83;;;19.63;;
60205;SDS011;46072;51.554;6.846;2022-12-18T08:54:41;44.25;;;20.13;;
60205;SDS011;46072;51.554;6.846;2022-12-18T08:57:07;51.20;;;21.05;;
60205;SDS011;46072;51.554;6.846;2022-12-18T08:59:34;43.60;;;20.15;;
60205;SDS011;46072;51.554;6.846;2022-12-18T09:02:00;44.38;;;18.95;;
60205;SDS011;46072;51.554;6.846;2022-12-18T09:04:27;50.17;;;20.85;;
60205;SDS011;46072;51.554;6.846;2022-12-18T09:06:54;53.90;;;21.13;;
60205;SDS011;46072;51.554;6.846;2022-12-18T09:09:20;50.83;;;20.83;;
60205;SDS011;46072;51.554;6.846;2022-12-18T09:11:47;50.72;;;20.75;;
60205;SDS011;46072;51.554;6.846;2022-12-18T09:14:13;49.45;;;21.85;;
60205;SDS011;46072;51.554;6.846;2022-12-18T09:16:40;49.85;;;22.98;;
60205;SDS011;46072;51.554;6.846;2022-12-18T09:19:06;56.75;;;23.77;;
60205;SDS011;46072;51.554;6.846;2022-12-18T09:21:33;50.63;;;23.02;;
60205;SDS011;46072;51.554;6.846;2022-12-18T09:24:11;50.55;;;22.95;;
60205;SDS011;46072;51.554;6.846;2022-12-18T09:26:42;50.22;;;22.35;;
60205;SDS011;46072;51.554;6.846;2022-12-18T09:29:12;56.25;;;24.05;;
60205;SDS011;46072;51.554;6.846;2022-12-18T09:31:41;54.40;;;23.25;;
60205;SDS011;46072;51.554;6.846;2022-12-18T09:34:07;62.88;;;25.33;;
60205;SDS011;46072;51.554;6.846;2022-12-18T09:36:34;59.17;;;24.67;;
60205;SDS011;46072;51.554;6.846;2022-12-18T09:39:04;60.78;;;24.63;;
60205;SDS011;46072;51.554;6.846;2022-12-18T09:44:21;52.63;;;22.70;;
60205;SDS011;46072;51.554;6.846;2022-12-18T09:47:03;62.47;;;26.85;;
60205;SDS011;46072;51.554;6.846;2022-12-18T09:49:51;53.42;;;23.75;;
60205;SDS011;46072;51.554;6.846;2022-12-18T09:57:46;56.92;;;25.92;;
60205;SDS011;46072;51.554;6.846;2022-12-18T10:00:20;65.82;;;29.35;;
60205;SDS011;46072;51.554;6.846;2022-12-18T10:02:48;82.82;;;36.85;;
60205;SDS011;46072;51.554;6.846;2022-12-18T10:05:20;101.75;;;41.65;;
60205;SDS011;46072;51.554;6.846;2022-12-18T10:07:59;78.18;;;35.95;;
60205;SDS011;46072;51.554;6.846;2022-12-18T10:18:32;78.47;;;37.40;;
60205;SDS011;46072;51.554;6.846;2022-12-18T10:21:13;77.53;;;33.92;;
60205;SDS011;46072;51.554;6.846;2022-12-18T10:23:48;61.53;;;30.48;;
60205;SDS011;46072;51.554;6.846;2022-12-18T10:26:23;71.10;;;32.63;;
60205;SDS011;46072;51.554;6.846;2022-12-18T10:28:50;76.82;;;33.15;;
60205;SDS011;46072;51.554;6.846;2022-12-18T10:31:18;71.00;;;34.05;;
60205;SDS011;46072;51.554;6.846;2022-12-18T10:33:50;73.13;;;34.53;;
60205;SDS011;46072;51.554;6.846;2022-12-18T10:36:17;76.35;;;33.35;;
60205;SDS011;46072;51.554;6.846;2022-12-18T10:38:43;74.15;;;33.33;;
60205;SDS011;46072;51.554;6.846;2022-12-18T10:46:55;65.95;;;31.95;;
60205;SDS011;46072;51.554;6.846;2022-12-18T10:49:36;71.38;;;32.03;;
60205;SDS011;46072;51.554;6.846;2022-12-18T10:52:17;67.15;;;31.92;;
60205;SDS011;46072;51.554;6.846;2022-12-18T10:59:52;74.45;;;33.00;;
60205;SDS011;46072;51.554;6.846;2022-12-18T11:02:26;92.97;;;36.55;;
60205;SDS011;46072;51.554;6.846;2022-12-18T11:04:55;78.50;;;35.30;;
60205;SDS011;46072;51.554;6.846;2022-12-18T11:07:21;83.53;;;34.25;;
60205;SDS011;46072;51.554;6.846;2022-12-18T11:09:59;94.68;;;40.17;;
60205;SDS011;46072;51.554;6.846;2022-12-18T11:12:29;91.63;;;39.08;;
60205;SDS011;46072;51.554;6.846;2022-12-18T11:14:56;91.43;;;39.72;;
60205;SDS011;46072;51.554;6.846;2022-12-18T11:20:01;94.93;;;41.78;;
60205;SDS011;46072;51.554;6.846;2022-12-18T11:22:31;91.35;;;39.58;;
60205;SDS011;46072;51.554;6.846;2022-12-18T11:25:00;96.43;;;41.35;;
60205;SDS011;46072;51.554;6.846;2022-12-18T11:27:51;88.85;;;37.97;;
60205;SDS011;46072;51.554;6.846;2022-12-18T11:32:46;83.97;;;39.35;;
60205;SDS011;46072;51.554;6.846;2022-12-18T11:37:43;99.45;;;40.95;;
60205;SDS011;46072;51.554;6.846;2022-12-18T11:40:17;96.28;;;39.30;;
60205;SDS011;46072;51.554;6.846;2022-12-18T11:42:54;89.03;;;37.35;;
60205;SDS011;46072;51.554;6.846;2022-12-18T11:45:29;98.18;;;36.75;;
60205;SDS011;46072;51.554;6.846;2022-12-18T11:47:59;101.13;;;41.60;;
60205;SDS011;46072;51.554;6.846;2022-12-18T11:53:17;83.22;;;38.35;;
60205;SDS011;46072;51.554;6.846;2022-12-18T12:04:01;73.68;;;31.70;;
60205;SDS011;46072;51.554;6.846;2022-12-18T12:06:40;53.60;;;27.48;;
60205;SDS011;46072;51.554;6.846;2022-12-18T12:12:05;54.05;;;25.50;;
60205;SDS011;46072;51.554;6.846;2022-12-18T12:25:44;70.65;;;29.17;;
60205;SDS011;46072;51.554;6.846;2022-12-18T12:28:31;58.97;;;27.83;;
60205;SDS011;46072;51.554;6.846;2022-12-18T12:39:23;58.50;;;28.73;;
60205;SDS011;46072;51.554;6.846;2022-12-18T12:41:54;56.95;;;27.83;;
60205;SDS011;46072;51.554;6.846;2022-12-18T12:44:42;59.83;;;29.60;;
60205;SDS011;46072;51.554;6.846;2022-12-18T12:47:14;61.28;;;29.58;;
60205;SDS011;46072;51.554;6.846;2022-12-18T12:49:43;57.47;;;29.75;;
60205;SDS011;46072;51.554;6.846;2022-12-18T12:52:16;61.95;;;29.65;;
60205;SDS011;46072;51.554;6.846;2022-12-18T12:54:50;61.20;;;31.83;;
60205;SDS011;46072;51.554;6.846;2022-12-18T12:57:20;60.60;;;29.33;;
60205;SDS011;46072;51.554;6.846;2022-12-18T12:59:57;57.05;;;26.23;;
60205;SDS011;46072;51.554;6.846;2022-12-18T13:02:28;60.63;;;27.33;;
60205;SDS011;46072;51.554;6.846;2022-12-18T13:05:10;53.50;;;25.65;;
60205;SDS011;46072;51.554;6.846;2022-12-18T13:08:11;48.50;;;23.75;;
60205;SDS011;46072;51.554;6.846;2022-12-18T13:10:49;45.28;;;21.23;;
60205;SDS011;46072;51.554;6.846;2022-12-18T13:13:16;41.80;;;19.25;;
60205;SDS011;46072;51.554;6.846;2022-12-18T13:16:03;32.60;;;14.20;;
60205;SDS011;46072;51.554;6.846;2022-12-18T13:18:33;23.77;;;11.88;;
60205;SDS011;46072;51.554;6.846;2022-12-18T13:30:59;28.42;;;12.35;;
60205;SDS011;46072;51.554;6.846;2022-12-18T13:36:30;28.95;;;12.57;;
60205;SDS011;46072;51.554;6.846;2022-12-18T13:41:49;31.20;;;13.88;;
60205;SDS011;46072;51.554;6.846;2022-12-18T13:47:19;22.77;;;10.60;;
60205;SDS011;46072;51.554;6.846;2022-12-18T13:49:50;24.90;;;11.50;;
60205;SDS011;46072;51.554;6.846;2022-12-18T13:52:21;24.05;;;10.63;;
60205;SDS011;46072;51.554;6.846;2022-12-18T13:54:56;22.55;;;9.75;;
60205;SDS011;46072;51.554;6.846;2022-12-18T13:57:28;20.60;;;9.27;;
60205;SDS011;46072;51.554;6.846;2022-12-18T14:02:23;22.48;;;9.88;;
60205;SDS011;46072;51.554;6.846;2022-12-18T14:04:51;24.13;;;10.48;;
60205;SDS011;46072;51.554;6.846;2022-12-18T14:07:25;20.02;;;9.90;;
60205;SDS011;46072;51.554;6.846;2022-12-18T14:10:00;25.70;;;9.65;;
60205;SDS011;46072;51.554;6.846;2022-12-18T14:12:47;26.33;;;11.75;;
60205;SDS011;46072;51.554;6.846;2022-12-18T14:18:02;22.83;;;11.07;;
60205;SDS011;46072;51.554;6.846;2022-12-18T14:20:35;27.27;;;10.95;;
60205;SDS011;46072;51.554;6.846;2022-12-18T14:23:03;27.10;;;11.55;;
60205;SDS011;46072;51.554;6.846;2022-12-18T14:25:30;27.88;;;12.60;;
60205;SDS011;46072;51.554;6.846;2022-12-18T14:30:37;29.45;;;12.27;;
60205;SDS011;46072;51.554;6.846;2022-12-18T14:35:36;32.88;;;12.90;;
60205;SDS011;46072;51.554;6.846;2022-12-18T14:38:25;27.65;;;12.32;;
60205;SDS011;46072;51.554;6.846;2022-12-18T14:40:53;26.48;;;11.63;;
60205;SDS011;46072;51.554;6.846;2022-12-18T14:43:20;24.08;;;11.57;;
60205;SDS011;46072;51.554;6.846;2022-12-18T14:45:47;27.55;;;11.68;;
60205;SDS011;46072;51.554;6.846;2022-12-18T14:48:20;31.35;;;12.85;;
60205;SDS011;46072;51.554;6.846;2022-12-18T14:56:24;27.90;;;14.20;;
60205;SDS011;46072;51.554;6.846;2022-12-18T14:58:59;25.88;;;14.80;;
60205;SDS011;46072;51.554;6.846;2022-12-18T15:01:37;29.75;;;13.55;;
60205;SDS011;46072;51.554;6.846;2022-12-18T15:04:05;27.27;;;12.75;;
60205;SDS011;46072;51.554;6.846;2022-12-18T15:07:02;29.92;;;14.98;;
60205;SDS011;46072;51.554;6.846;2022-12-18T15:10:02;28.17;;;14.98;;
60205;SDS011;46072;51.554;6.846;2022-12-18T15:18:00;26.90;;;12.43;;
60205;SDS011;46072;51.554;6.846;2022-12-18T15:20:30;27.25;;;12.98;;
60205;SDS011;46072;51.554;6.846;2022-12-18T15:22:58;27.00;;;12.88;;
60205;SDS011;46072;51.554;6.846;2022-12-18T15:25:42;30.80;;;14.95;;
60205;SDS011;46072;51.554;6.846;2022-12-18T15:28:17;34.40;;;18.42;;
60205;SDS011;46072;51.554;6.846;2022-12-18T15:31:02;29.73;;;13.85;;
60205;SDS011;46072;51.554;6.846;2022-12-18T15:33:32;29.45;;;14.00;;
60205;SDS011;46072;51.554;6.846;2022-12-18T15:36:01;33.45;;;15.80;;
60205;SDS011;46072;51.554;6.846;2022-12-18T15:38:33;31.05;;;15.85;;
60205;SDS011;46072;51.554;6.846;2022-12-18T15:41:00;28.27;;;13.93;;
60205;SDS011;46072;51.554;6.846;2022-12-18T15:43:26;26.17;;;12.75;;
60205;SDS011;46072;51.554;6.846;2022-12-18T15:46:13;32.67;;;13.65;;
60205;SDS011;46072;51.554;6.846;2022-12-18T15:48:42;26.58;;;15.00;;
60205;SDS011;46072;51.554;6.846;2022-12-18T15:54:02;31.85;;;16.85;;
60205;SDS011;46072;51.554;6.846;2022-12-18T15:56:30;38.55;;;19.73;;
60205;SDS011;46072;51.554;6.846;2022-12-18T15:59:16;38.28;;;22.27;;
60205;SDS011;46072;51.554;6.846;2022-12-18T16:01:45;40.00;;;20.55;;
60205;SDS011;46072;51.554;6.846;2022-12-18T16:04:14;42.08;;;20.63;;
60205;SDS011;46072;51.554;6.846;2022-12-18T16:06:42;36.10;;;18.90;;
60205;SDS011;46072;51.554;6.846;2022-12-18T16:09:29;29.80;;;13.05;;
60205;SDS011;46072;51.554;6.846;2022-12-18T16:11:55;38.22;;;19.35;;
60205;SDS011;46072;51.554;6.846;2022-12-18T16:14:22;25.25;;;12.45;;
60205;SDS011;46072;51.554;6.846;2022-12-18T16:16:53;32.63;;;14.23;;
60205;SDS011;46072;51.554;6.846;2022-12-18T16:19:27;29.55;;;14.18;;
60205;SDS011;46072;51.554;6.846;2022-12-18T16:21:55;20.88;;;10.65;;
60205;SDS011;46072;51.554;6.846;2022-12-18T16:24:23;23.95;;;12.65;;
60205;SDS011;46072;51.554;6.846;2022-12-18T16:26:51;27.30;;;13.27;;
60205;SDS011;46072;51.554;6.846;2022-12-18T16:29:18;28.77;;;13.48;;
60205;SDS011;46072;51.554;6.846;2022-12-18T16:31:45;30.60;;;15.18;;
60205;SDS011;46072;51.554;6.846;2022-12-18T16:34:23;36.42;;;16.65;;
60205;SDS011;46072;51.554;6.846;2022-12-18T16:36:58;37.85;;;16.45;;
60205;SDS011;46072;51.554;6.846;2022-12-18T16:39:30;36.35;;;14.77;;
60205;SDS011;46072;51.554;6.846;2022-12-18T16:41:59;32.75;;;15.70;;
60205;SDS011;46072;51.554;6.846;2022-12-18T16:44:27;32.08;;;14.15;;
60205;SDS011;46072;51.554;6.846;2022-12-18T16:46:54;28.48;;;14.00;;
60205;SDS011;46072;51.554;6.846;2022-12-18T16:49:20;29.85;;;13.85;;
60205;SDS011;46072;51.554;6.846;2022-12-18T16:51:47;30.77;;;13.88;;